Time;durP1;ratioP1;P1;durP2;ratioP2;P2;SDS_P1;SDS_P2;PMS_P1;PMS_P2;Temp;Humidity;BMP_temperature;BMP_pressure;BME280_temperature;BME280_humidity;BME280_pressure;Samples;Min_cycle;Max_cycle;Signal;HPM_P1;HPM_P2
2022/06/24 00:03:30;;;;;;;3.30;1.50;;;;;;;20.66;100.00;100979.28;10352090;28;20090;-62
2022/06/24 00:08:27;;;;;;;3.10;1.38;;;;;;;20.58;100.00;100980.34;10356749;28;20492;-62
2022/06/24 00:13:23;;;;;;;4.50;1.95;;;;;;;20.51;100.00;100980.25;10351767;28;20056;-63
2022/06/24 00:18:20;;;;;;;3.55;1.73;;;;;;;20.44;100.00;100974.63;10357324;28;20071;-62
2022/06/24 00:23:19;;;;;;;3.60;2.00;;;;;;;20.38;100.00;100972.19;10360611;28;20064;-62
2022/06/24 00:28:16;;;;;;;4.00;1.98;;;;;;;20.29;100.00;100970.88;10348381;28;20519;-61
2022/06/24 00:33:15;;;;;;;3.33;1.60;;;;;;;20.23;100.00;100970.41;10354534;28;20075;-61
2022/06/24 00:38:27;;;;;;;3.17;1.60;;;;;;;20.16;100.00;100959.22;10355106;28;20404;-60
2022/06/24 00:43:32;;;;;;;4.00;1.73;;;;;;;20.11;100.00;100962.31;10354438;28;20052;-61
2022/06/24 00:48:30;;;;;;;3.25;1.98;;;;;;;20.06;100.00;100954.31;10341327;28;20529;-61
2022/06/24 00:53:27;;;;;;;4.00;1.40;;;;;;;19.99;100.00;100954.25;10359325;28;20032;-60
2022/06/24 00:58:23;;;;;;;4.20;1.83;;;;;;;19.96;100.00;100945.50;10367342;27;20082;-63
2022/06/24 01:03:20;;;;;;;4.25;2.00;;;;;;;19.90;100.00;100948.97;10351975;28;20171;-62
2022/06/24 01:08:16;;;;;;;2.90;1.65;;;;;;;19.83;100.00;100935.78;10357640;28;20817;-61
2022/06/24 01:13:13;;;;;;;3.30;1.70;;;;;;;19.75;100.00;100928.56;10349237;28;20097;-63
2022/06/24 01:18:09;;;;;;;3.65;1.95;;;;;;;19.68;100.00;100922.84;10348097;28;20478;-62
2022/06/24 01:23:06;;;;;;;4.07;1.73;;;;;;;19.62;100.00;100921.59;10358745;28;20556;-61
2022/06/24 01:28:03;;;;;;;3.40;2.00;;;;;;;19.55;100.00;100908.44;10350152;28;20499;-61
2022/06/24 01:32:59;;;;;;;5.47;1.83;;;;;;;19.48;100.00;100906.34;10358885;28;20133;-60
2022/06/24 01:37:55;;;;;;;5.03;1.90;;;;;;;19.40;100.00;100901.88;10338187;28;20036;-60
2022/06/24 01:42:52;;;;;;;3.80;2.38;;;;;;;19.34;100.00;100897.81;10351720;28;20121;-63
2022/06/24 01:47:48;;;;;;;5.20;2.88;;;;;;;19.26;100.00;100904.41;10354655;28;20089;-61
2022/06/24 01:52:45;;;;;;;3.95;2.10;;;;;;;19.15;100.00;100901.50;10360580;28;20086;-63
2022/06/24 01:57:41;;;;;;;4.20;2.40;;;;;;;19.12;100.00;100888.38;10369024;28;20044;-63
2022/06/24 02:02:38;;;;;;;6.40;2.28;;;;;;;19.05;100.00;100891.84;10372947;28;20503;-62
2022/06/24 02:07:40;;;;;;;3.17;2.00;;;;;;;19.00;100.00;100894.13;10356530;28;20055;-62
2022/06/24 02:17:51;;;;;;;3.85;2.08;;;;;;;18.88;100.00;100859.09;10354814;28;20040;-62
2022/06/24 02:22:48;;;;;;;4.13;2.13;;;;;;;18.85;100.00;100849.56;10365603;28;20439;-62
2022/06/24 02:27:46;;;;;;;4.93;2.25;;;;;;;18.81;100.00;100864.53;10343066;28;20458;-62
2022/06/24 02:32:42;;;;;;;4.22;2.10;;;;;;;18.77;100.00;100858.91;10344069;28;20561;-62
2022/06/24 02:37:39;;;;;;;3.75;2.00;;;;;;;18.69;100.00;100852.44;10353766;28;20051;-61
2022/06/24 02:42:35;;;;;;;4.85;2.22;;;;;;;18.65;100.00;100845.22;10355805;28;20458;-63
2022/06/24 02:47:32;;;;;;;3.80;2.20;;;;;;;18.58;100.00;100845.91;10360165;28;20560;-63
2022/06/24 02:52:28;;;;;;;5.85;2.25;;;;;;;18.53;100.00;100842.66;10357058;28;20135;-61
2022/06/24 02:57:25;;;;;;;3.13;1.85;;;;;;;18.51;100.00;100837.47;10361224;27;20036;-61
2022/06/24 03:02:22;;;;;;;3.67;1.90;;;;;;;18.48;100.00;100829.94;10360101;28;21199;-62
2022/06/24 03:07:18;;;;;;;6.63;2.47;;;;;;;18.46;100.00;100810.91;10356843;28;20093;-62
2022/06/24 03:12:15;;;;;;;4.20;2.03;;;;;;;18.45;100.00;100811.25;10366570;28;20071;-63
2022/06/24 03:17:11;;;;;;;4.88;1.88;;;;;;;18.43;100.00;100810.84;10363741;28;20044;-63
2022/06/24 03:22:08;;;;;;;3.85;2.00;;;;;;;18.44;100.00;100812.44;10372260;28;20104;-63
2022/06/24 03:27:04;;;;;;;5.10;2.20;;;;;;;18.43;100.00;100797.03;10359558;28;20073;-63
2022/06/24 03:32:03;;;;;;;4.75;1.80;;;;;;;18.39;100.00;100787.84;10349252;28;20783;-62
2022/06/24 03:37:00;;;;;;;9.00;2.42;;;;;;;18.41;100.00;100777.22;10353708;28;20047;-62
2022/06/24 03:41:56;;;;;;;4.38;1.73;;;;;;;18.48;100.00;100774.56;10357712;28;20522;-62
2022/06/24 03:46:53;;;;;;;3.90;1.95;;;;;;;18.50;100.00;100772.22;10351941;28;20076;-62
2022/06/24 03:51:49;;;;;;;4.38;1.70;;;;;;;18.52;100.00;100764.34;10363889;28;20080;-62
2022/06/24 03:56:46;;;;;;;3.90;2.28;;;;;;;18.47;100.00;100746.06;10357407;28;20036;-61
2022/06/24 04:01:42;;;;;;;4.03;2.00;;;;;;;18.60;100.00;100749.44;10347355;28;20036;-61
2022/06/24 04:06:39;;;;;;;4.95;2.50;;;;;;;18.59;100.00;100734.00;10344047;28;20097;-62
2022/06/24 04:11:35;;;;;;;4.88;1.58;;;;;;;18.64;100.00;100738.41;10340547;27;20067;-62
2022/06/24 04:16:32;;;;;;;4.20;1.80;;;;;;;18.69;100.00;100730.56;10351119;28;20474;-63
2022/06/24 04:21:31;;;;;;;6.43;2.40;;;;;;;18.74;100.00;100731.44;10329572;28;20454;-63
2022/06/24 04:26:27;;;;;;;3.95;2.00;;;;;;;18.80;100.00;100735.50;10321134;28;20077;-63
2022/06/24 04:31:25;;;;;;;3.95;2.10;;;;;;;18.78;100.00;100726.78;10317305;28;20043;-64
2022/06/24 04:36:22;;;;;;;5.85;2.33;;;;;;;18.87;100.00;100716.25;10339657;28;20108;-66
2022/06/24 04:41:21;;;;;;;5.57;2.20;;;;;;;18.91;100.00;100709.56;10330520;28;20565;-71
2022/06/24 04:46:18;;;;;;;4.40;2.15;;;;;;;18.94;100.00;100708.03;10335743;28;20445;-71
2022/06/24 04:51:16;;;;;;;3.83;2.40;;;;;;;18.98;100.00;100702.50;10338371;28;20834;-71
2022/06/24 04:56:13;;;;;;;6.22;2.35;;;;;;;19.06;100.00;100699.47;10338456;28;20620;-70
2022/06/24 05:01:10;;;;;;;3.75;1.98;;;;;;;19.12;100.00;100700.75;10347149;28;20097;-70
2022/06/24 05:06:06;;;;;;;5.72;2.40;;;;;;;19.18;100.00;100694.88;10333333;28;20036;-68
2022/06/24 05:11:03;;;;;;;4.53;2.65;;;;;;;19.28;100.00;100699.72;10333747;28;20035;-67
2022/06/24 05:15:59;;;;;;;9.82;2.80;;;;;;;19.28;100.00;100683.09;10335361;28;20082;-66
2022/06/24 05:21:16;;;;;;;5.25;2.40;;;;;;;19.35;100.00;100677.63;10343635;28;20510;-66
2022/06/24 05:26:12;;;;;;;5.03;2.35;;;;;;;19.32;100.00;100678.41;10327413;28;20139;-66
2022/06/24 05:31:08;;;;;;;5.32;2.20;;;;;;;19.47;100.00;100666.31;10352094;28;20043;-66
2022/06/24 05:36:05;;;;;;;3.97;2.28;;;;;;;19.57;100.00;100678.69;10334218;28;20075;-67
2022/06/24 05:41:03;;;;;;;5.47;2.50;;;;;;;19.61;100.00;100667.59;10348334;28;20503;-66
2022/06/24 05:45:59;;;;;;;5.32;2.40;;;;;;;19.72;100.00;100663.78;10329479;28;20071;-66
2022/06/24 05:50:56;;;;;;;6.75;2.60;;;;;;;19.80;100.00;100652.78;10337151;28;20051;-65
2022/06/24 05:55:58;;;;;;;7.25;2.10;;;;;;;19.88;100.00;100652.44;10348038;27;20075;-66
2022/06/24 06:00:55;;;;;;;7.90;3.50;;;;;;;19.93;100.00;100635.44;10356444;28;20099;-66
2022/06/24 06:05:52;;;;;;;5.22;2.38;;;;;;;20.02;100.00;100637.09;10363449;28;20044;-66
2022/06/24 06:10:49;;;;;;;10.40;2.83;;;;;;;20.13;100.00;100626.88;10346800;28;20515;-65
2022/06/24 06:15:45;;;;;;;9.43;2.95;;;;;;;20.26;100.00;100628.19;10353742;28;21028;-65
2022/06/24 06:20:42;;;;;;;4.90;2.80;;;;;;;20.37;100.00;100631.78;10336982;28;20532;-67
2022/06/24 06:25:41;;;;;;;5.07;2.50;;;;;;;20.45;100.00;100632.66;10339845;28;20052;-66
2022/06/24 06:30:38;;;;;;;5.15;2.78;;;;;;;20.49;100.00;100621.56;10344391;28;20116;-66
2022/06/24 06:35:34;;;;;;;4.72;2.67;;;;;;;20.57;100.00;100634.34;10324035;28;20044;-66
2022/06/24 06:40:34;;;;;;;7.43;2.58;;;;;;;20.78;100.00;100650.34;10337494;28;20086;-65
2022/06/24 06:45:34;;;;;;;6.88;2.67;;;;;;;20.97;100.00;100650.00;10341458;28;20559;-66
2022/06/24 06:50:31;;;;;;;6.50;2.80;;;;;;;21.07;100.00;100640.13;10346970;28;20512;-65
2022/06/24 06:55:28;;;;;;;5.78;2.58;;;;;;;21.19;100.00;100642.56;10354046;28;20127;-65
2022/06/24 07:00:25;;;;;;;6.45;2.45;;;;;;;21.31;100.00;100648.97;10334268;28;20052;-66
2022/06/24 07:05:21;;;;;;;7.53;3.13;;;;;;;21.37;100.00;100641.81;10333969;28;20450;-65
2022/06/24 07:10:18;;;;;;;6.53;2.70;;;;;;;21.48;100.00;100648.22;10337303;28;20499;-65
2022/06/24 07:15:16;;;;;;;4.60;2.80;;;;;;;21.59;100.00;100643.47;10322718;28;20082;-65
2022/06/24 07:20:13;;;;;;;5.22;2.72;;;;;;;21.71;100.00;100641.50;10339394;28;20036;-65
2022/06/24 07:25:09;;;;;;;5.93;2.53;;;;;;;21.89;100.00;100628.41;10333517;28;20048;-65
2022/06/24 07:30:06;;;;;;;6.35;2.75;;;;;;;22.06;100.00;100616.44;10335118;28;20818;-67
2022/06/24 07:35:03;;;;;;;6.03;2.67;;;;;;;22.22;100.00;100616.06;10330830;28;20463;-67
2022/06/24 07:40:00;;;;;;;5.78;3.33;;;;;;;22.36;100.00;100600.53;10339144;28;20084;-67
2022/06/24 07:44:57;;;;;;;6.53;2.97;;;;;;;22.51;100.00;100606.84;10343744;28;20048;-70
2022/06/24 07:49:54;;;;;;;6.72;2.65;;;;;;;22.65;100.00;100595.66;10324927;28;20040;-68
2022/06/24 07:56:56;;;;;;;8.00;3.00;;;;;;;22.84;100.00;100598.00;10329077;28;20113;-67
2022/06/24 08:00:07;;;;;;;4.85;2.80;;;;;;;22.96;100.00;100593.16;10340569;28;20574;-67
2022/06/24 08:05:09;;;;;;;8.65;2.95;;;;;;;23.10;100.00;100593.13;10350520;27;20126;-68
2022/06/24 08:10:06;;;;;;;5.53;2.95;;;;;;;23.26;100.00;100590.63;10355126;28;20088;-67
2022/06/24 08:15:02;;;;;;;4.45;2.72;;;;;;;23.42;100.00;100573.41;10352080;28;20048;-68
2022/06/24 08:19:59;;;;;;;10.07;2.58;;;;;;;23.53;100.00;100570.50;10333003;28;20075;-67
2022/06/24 08:24:56;;;;;;;8.90;3.05;;;;;;;23.73;100.00;100560.38;10322769;28;20076;-68
2022/06/24 08:30:12;;;;;;;3.60;2.38;;;;;;;23.89;100.00;100542.34;10329939;28;20067;-68
2022/06/24 08:35:09;;;;;;;5.70;3.03;;;;;;;24.10;100.00;100542.09;10337828;28;20607;-68
2022/06/24 08:40:24;;;;;;;5.82;3.28;;;;;;;24.32;97.18;100530.69;10332577;28;20055;-67
2022/06/24 08:45:22;;;;;;;5.75;3.20;;;;;;;24.49;93.20;100521.34;10336955;28;20045;-69
2022/06/24 08:50:19;;;;;;;5.88;2.60;;;;;;;24.68;94.15;100517.09;10359270;28;20505;-71
2022/06/24 08:55:18;;;;;;;4.13;2.30;;;;;;;24.83;96.62;100503.72;10353201;28;20462;-67
2022/06/24 09:00:15;;;;;;;8.15;3.15;;;;;;;25.02;94.05;100493.06;10351876;28;20082;-67
2022/06/24 09:05:13;;;;;;;5.65;2.70;;;;;;;25.22;90.89;100485.59;10342523;28;20082;-67
2022/06/24 09:10:12;;;;;;;4.65;2.90;;;;;;;25.40;89.51;100474.88;10344743;28;20694;-68
2022/06/24 09:15:11;;;;;;;5.45;2.50;;;;;;;25.66;87.16;100468.84;10339740;28;20052;-68
2022/06/24 09:20:21;;;;;;;6.65;2.60;;;;;;;25.86;83.48;100472.50;10340746;28;20098;-68
2022/06/24 09:25:40;;;;;;;6.80;2.83;;;;;;;26.02;85.66;100466.22;10340076;28;20048;-67
2022/06/24 09:30:38;;;;;;;8.73;3.00;;;;;;;26.23;81.96;100468.56;10355775;28;20052;-67
2022/06/24 09:35:35;;;;;;;6.55;3.25;;;;;;;26.45;76.58;100456.91;10354639;28;20135;-67
2022/06/24 09:40:32;;;;;;;5.70;2.40;;;;;;;26.59;85.67;100451.00;10367364;27;20098;-68
2022/06/24 09:45:47;;;;;;;6.22;3.08;;;;;;;26.89;84.03;100448.34;10373837;28;20076;-68
2022/06/24 09:50:44;;;;;;;5.68;2.80;;;;;;;27.15;78.77;100440.91;10356005;28;20094;-68
2022/06/24 09:55:40;;;;;;;6.15;2.97;;;;;;;27.29;80.17;100443.38;10342605;28;20072;-67
2022/06/24 10:00:40;;;;;;;7.68;2.38;;;;;;;27.54;78.81;100439.91;10331479;28;20602;-67
2022/06/24 10:05:42;;;;;;;6.15;2.85;;;;;;;27.84;77.30;100441.53;10333079;28;20067;-67
2022/06/24 10:10:46;;;;;;;5.78;3.58;;;;;;;28.10;71.38;100439.59;10338851;28;20067;-69
2022/06/24 10:15:43;;;;;;;6.05;2.83;;;;;;;28.55;68.29;100454.78;10334710;28;20496;-67
2022/06/24 10:20:45;;;;;;;6.10;3.08;;;;;;;29.71;54.78;100458.28;10329009;28;20043;-67
2022/06/24 10:25:47;;;;;;;6.45;2.88;;;;;;;30.86;58.18;100448.38;10351238;28;20123;-67
2022/06/24 10:30:56;;;;;;;5.35;3.03;;;;;;;31.72;48.22;100439.91;10340068;28;20064;-68
2022/06/24 10:36:05;;;;;;;5.82;2.60;;;;;;;32.91;46.89;100436.00;10340820;28;20051;-68
2022/06/24 10:41:05;;;;;;;7.38;2.67;;;;;;;33.95;41.12;100438.44;10329049;28;20487;-68
2022/06/24 10:46:13;;;;;;;4.68;2.15;;;;;;;34.74;42.07;100428.44;10340261;28;20039;-68
2022/06/24 10:51:21;;;;;;;4.88;2.70;;;;;;;35.34;38.15;100431.88;10332880;28;20085;-68
2022/06/24 10:56:41;;;;;;;5.35;2.33;;;;;;;36.17;43.41;100419.09;10329231;28;20735;-69
2022/06/24 11:01:46;;;;;;;4.25;2.38;;;;;;;34.45;40.28;100415.06;10336625;28;20048;-68
2022/06/24 11:07:08;;;;;;;6.43;2.50;;;;;;;34.28;40.19;100409.91;10322047;28;20044;-68
2022/06/24 11:12:26;;;;;;;6.05;2.75;;;;;;;34.97;39.94;100398.31;10323730;28;20089;-69
2022/06/24 11:17:26;;;;;;;7.57;2.85;;;;;;;35.55;41.62;100384.31;10326694;28;20113;-68
2022/06/24 11:22:29;;;;;;;6.53;2.90;;;;;;;36.04;35.88;100379.63;10323590;28;20118;-67
2022/06/24 11:27:35;;;;;;;5.65;2.78;;;;;;;36.09;37.00;100387.47;10321223;28;20715;-67
2022/06/24 11:32:53;;;;;;;5.80;3.00;;;;;;;36.40;38.54;100368.84;10321100;28;20044;-68
2022/06/24 11:37:50;;;;;;;8.88;3.50;;;;;;;36.16;32.15;100375.66;10366188;27;20044;-68
2022/06/24 11:42:46;;;;;;;7.03;3.00;;;;;;;36.29;32.11;100366.69;10330491;28;20068;-68
2022/06/24 11:47:46;;;;;;;5.72;2.67;;;;;;;36.50;32.19;100347.41;10322077;28;20518;-69
2022/06/24 11:52:47;;;;;;;3.80;2.67;;;;;;;35.96;31.08;100328.13;10331276;28;20489;-69
2022/06/24 11:57:43;;;;;;;;;;;;;;;36.01;35.16;100320.91;10336574;28;20502;-69
2022/06/24 12:02:40;;;;;;;5.28;2.58;;;;;;;35.01;33.12;100307.22;10339330;28;20350;-68
2022/06/24 12:07:38;;;;;;;4.43;2.42;;;;;;;33.99;32.79;100331.25;10340590;28;20059;-69
2022/06/24 12:12:36;;;;;;;5.15;3.05;;;;;;;32.58;33.86;100331.28;10347031;28;20079;-69
2022/06/24 12:17:33;;;;;;;5.80;2.85;;;;;;;31.67;35.40;100325.44;10344259;28;20040;-68
2022/06/24 12:22:31;;;;;;;5.57;2.95;;;;;;;30.89;38.85;100340.16;10351610;28;20399;-68
2022/06/24 12:27:35;;;;;;;17.50;3.20;;;;;;;29.75;45.41;100363.13;10344866;28;20044;-68
2022/06/24 12:32:49;;;;;;;8.98;3.33;;;;;;;28.81;53.28;100387.28;10343702;28;20067;-68
2022/06/24 12:37:52;;;;;;;12.93;3.25;;;;;;;28.17;58.24;100418.94;10335950;28;20055;-68
2022/06/24 12:43:08;;;;;;;12.55;3.03;;;;;;;27.74;70.26;100410.94;10330938;28;20087;-68
2022/06/24 12:53:21;;;;;;;6.97;3.13;;;;;;;26.63;83.92;100429.28;10334573;28;20059;-68
2022/06/24 12:58:19;;;;;;;6.07;3.35;;;;;;;26.51;87.48;100410.34;10331698;28;20052;-68
2022/06/24 13:03:18;;;;;;;9.48;3.47;;;;;;;26.50;88.52;100419.16;10325813;28;20173;-68
2022/06/24 13:08:15;;;;;;;7.05;3.75;;;;;;;26.42;91.57;100412.94;10335738;28;20093;-68
2022/06/24 13:13:12;;;;;;;6.05;3.20;;;;;;;26.39;92.33;100419.41;10328710;28;20043;-68
2022/06/24 13:18:08;;;;;;;7.45;3.42;;;;;;;26.20;98.57;100424.63;10327269;28;20166;-68
2022/06/24 13:23:05;;;;;;;8.93;3.60;;;;;;;26.19;100.00;100416.63;10325262;28;20431;-68
2022/06/24 13:28:03;;;;;;;7.55;2.92;;;;;;;26.19;100.00;100425.81;10331245;28;20036;-69
2022/06/24 13:32:59;;;;;;;9.77;3.53;;;;;;;26.32;100.00;100425.16;10329725;28;20079;-69
2022/06/24 13:37:56;;;;;;;7.97;3.80;;;;;;;26.29;100.00;100438.03;10337179;28;20079;-69
2022/06/24 13:42:56;;;;;;;12.32;3.80;;;;;;;26.39;100.00;100459.44;10335476;28;20052;-69
2022/06/24 13:47:53;;;;;;;6.57;3.58;;;;;;;26.49;100.00;100454.81;10348878;27;20592;-68
2022/06/24 13:52:50;;;;;;;8.55;3.47;;;;;;;26.66;100.00;100470.47;10333976;28;20068;-68
2022/06/24 13:57:46;;;;;;;8.05;3.17;;;;;;;26.75;100.00;100474.72;10329655;28;20493;-68
2022/06/24 14:02:43;;;;;;;13.68;3.80;;;;;;;26.90;100.00;100498.41;10334050;28;20527;-68
2022/06/24 14:07:39;;;;;;;8.38;3.72;;;;;;;26.97;100.00;100484.22;10338192;28;20098;-68
2022/06/24 14:12:36;;;;;;;7.80;3.38;;;;;;;27.19;100.00;100480.91;10330121;28;20499;-68
2022/06/24 14:17:35;;;;;;;6.57;2.90;;;;;;;27.26;99.12;100480.75;10333610;28;20113;-68
2022/06/24 14:22:32;;;;;;;5.82;2.50;;;;;;;27.22;99.83;100480.03;10346066;27;20507;-68
2022/06/24 14:27:29;;;;;;;8.57;3.10;;;;;;;27.04;97.00;100489.66;10347829;28;20121;-68
2022/06/24 14:32:26;;;;;;;6.50;2.53;;;;;;;26.83;94.33;100488.16;10351363;28;20055;-68
2022/06/24 14:42:39;;;;;;;6.20;2.28;;;;;;;26.63;93.01;100495.81;10353697;28;20072;-68
2022/06/24 14:47:39;;;;;;;5.88;2.25;;;;;;;26.53;94.35;100525.63;10356294;28;20051;-68
2022/06/24 14:52:35;;;;;;;6.13;2.60;;;;;;;26.30;95.67;100523.69;10360655;28;20377;-65
2022/06/24 14:57:32;;;;;;;3.58;2.03;;;;;;;26.13;97.40;100542.44;10357580;28;20610;-68
2022/06/24 15:02:32;;;;;;;8.02;2.88;;;;;;;25.89;100.00;100557.69;10346759;28;20040;-68
2022/06/24 15:07:29;;;;;;;5.63;2.90;;;;;;;25.53;100.00;100572.25;10340037;28;20067;-68
2022/06/24 15:12:26;;;;;;;6.53;2.45;;;;;;;25.19;100.00;100561.97;10323940;28;20545;-67
2022/06/24 15:17:22;;;;;;;8.68;3.10;;;;;;;25.09;100.00;100560.09;10324835;28;20068;-68
2022/06/24 15:22:19;;;;;;;6.15;2.30;;;;;;;25.15;100.00;100548.00;10337893;28;20644;-68
2022/06/24 15:27:16;;;;;;;8.50;2.97;;;;;;;25.35;100.00;100534.16;10339006;28;20106;-68
2022/06/24 15:32:12;;;;;;;6.35;2.70;;;;;;;25.46;100.00;100521.97;10334448;28;20067;-68
2022/06/24 15:37:09;;;;;;;9.77;3.08;;;;;;;25.42;100.00;100505.25;10330534;28;20056;-68
2022/06/24 15:42:06;;;;;;;9.90;2.85;;;;;;;25.36;100.00;100499.34;10336146;28;20106;-68
2022/06/24 15:47:03;;;;;;;5.28;1.83;;;;;;;25.10;100.00;100489.75;10333911;28;20848;-68
2022/06/24 15:51:59;;;;;;;5.63;2.70;;;;;;;25.13;100.00;100493.69;10332855;28;20119;-68
2022/06/24 15:56:56;;;;;;;5.47;2.28;;;;;;;25.19;100.00;100492.03;10337116;28;20055;-68
2022/06/24 16:01:52;;;;;;;6.68;2.47;;;;;;;25.26;100.00;100491.91;10328340;28;20094;-68
2022/06/24 16:06:49;;;;;;;6.68;2.28;;;;;;;25.37;100.00;100509.34;10333009;28;20072;-66
2022/06/24 16:17:01;;;;;;;6.60;3.25;;;;;;;25.66;100.00;100503.25;10354115;28;20138;-67
2022/06/24 16:21:57;;;;;;;7.72;2.70;;;;;;;25.68;100.00;100506.41;10352868;28;20067;-70
2022/06/24 16:32:09;;;;;;;7.10;2.47;;;;;;;26.32;100.00;100500.81;10334288;28;20040;-69
2022/06/24 16:37:05;;;;;;;6.57;2.55;;;;;;;26.17;100.00;100503.91;10326071;28;20041;-69
2022/06/24 16:42:03;;;;;;;5.85;3.00;;;;;;;25.97;100.00;100506.72;10317378;28;20093;-69
2022/06/24 16:46:59;;;;;;;5.10;2.00;;;;;;;25.67;100.00;100502.03;10316853;28;20854;-68
2022/06/24 16:51:56;;;;;;;4.43;2.28;;;;;;;25.48;100.00;100497.16;10322421;28;20515;-69
2022/06/24 16:56:52;;;;;;;5.50;2.00;;;;;;;25.31;100.00;100485.84;10319466;28;20094;-67
2022/06/24 17:01:48;;;;;;;6.38;2.10;;;;;;;25.26;100.00;100477.16;10329822;28;20075;-69
2022/06/24 17:06:45;;;;;;;4.93;1.75;;;;;;;25.82;100.00;100460.56;10313347;28;20044;-69
2022/06/24 17:11:42;;;;;;;7.10;2.60;;;;;;;27.05;100.00;100448.34;10320223;28;20114;-70
2022/06/24 17:16:38;;;;;;;4.65;1.40;;;;;;;27.27;100.00;100437.44;10326132;28;20074;-70
2022/06/24 17:21:35;;;;;;;4.70;1.42;;;;;;;27.38;100.00;100443.53;10325373;28;20060;-69
2022/06/24 17:26:31;;;;;;;2.78;1.17;;;;;;;27.29;100.00;100451.78;10320698;28;20052;-70
2022/06/24 17:31:33;;;;;;;3.67;1.35;;;;;;;26.99;100.00;100473.34;10331466;28;20064;-69
2022/06/24 17:36:29;;;;;;;5.40;1.33;;;;;;;26.59;100.00;100472.66;10331474;28;20040;-70
2022/06/24 17:41:26;;;;;;;4.35;1.40;;;;;;;26.11;100.00;100460.00;10332397;28;20075;-69
2022/06/24 17:46:23;;;;;;;4.85;1.30;;;;;;;25.68;100.00;100470.00;10335376;28;20052;-68
2022/06/24 17:51:19;;;;;;;4.18;1.60;;;;;;;25.42;100.00;100504.47;10333287;28;21127;-70
2022/06/24 17:56:16;;;;;;;4.20;1.42;;;;;;;25.21;100.00;100514.00;10314942;28;20052;-69
2022/06/24 18:01:12;;;;;;;3.65;1.25;;;;;;;25.06;100.00;100518.97;10318058;28;20557;-69
2022/06/24 18:06:09;;;;;;;4.00;1.65;;;;;;;24.92;100.00;100534.75;10325830;28;20051;-69
2022/06/24 18:11:06;;;;;;;5.68;2.15;;;;;;;24.78;100.00;100541.31;10337240;28;20040;-69
2022/06/24 18:16:02;;;;;;;5.03;2.95;;;;;;;24.70;100.00;100533.47;10338243;28;20582;-69
2022/06/24 18:20:59;;;;;;;6.00;3.70;;;;;;;24.66;100.00;100549.50;10332093;28;20028;-69
2022/06/24 18:25:56;;;;;;;6.63;2.90;;;;;;;24.63;100.00;100553.13;10329592;28;20048;-69
2022/06/24 18:30:52;;;;;;;6.75;3.40;;;;;;;24.60;100.00;100562.34;10311739;28;20438;-70
2022/06/24 18:35:49;;;;;;;7.60;3.63;;;;;;;24.57;100.00;100559.16;10323545;28;20137;-69
2022/06/24 18:40:46;;;;;;;7.85;4.00;;;;;;;24.54;100.00;100565.59;10332973;28;20040;-69
2022/06/24 18:45:43;;;;;;;8.27;3.97;;;;;;;24.44;100.00;100585.25;10320948;28;20064;-69
2022/06/24 18:50:39;;;;;;;8.55;3.67;;;;;;;24.34;100.00;100581.34;10312754;27;20064;-69
2022/06/24 18:55:36;;;;;;;11.98;4.18;;;;;;;24.26;100.00;100585.47;10323496;28;20049;-70
2022/06/24 19:00:33;;;;;;;7.60;3.92;;;;;;;24.17;100.00;100596.31;10328127;28;20040;-70
2022/06/24 19:05:30;;;;;;;9.93;5.20;;;;;;;24.07;100.00;100615.56;10333838;28;20044;-69
2022/06/24 19:10:26;;;;;;;6.85;4.38;;;;;;;24.03;100.00;100614.78;10336159;28;20048;-69
2022/06/24 19:15:23;;;;;;;7.65;4.95;;;;;;;23.95;100.00;100618.88;10333920;28;20131;-70
2022/06/24 19:20:20;;;;;;;8.18;4.60;;;;;;;23.91;100.00;100623.69;10349005;28;20791;-70
2022/06/24 19:25:16;;;;;;;6.50;4.10;;;;;;;23.86;100.00;100632.50;10320006;28;20060;-69
2022/06/24 19:30:13;;;;;;;9.23;4.63;;;;;;;23.81;100.00;100630.13;10318107;28;20138;-70
2022/06/24 19:35:09;;;;;;;8.13;4.75;;;;;;;23.77;100.00;100634.97;10335635;27;20048;-70
2022/06/24 19:40:26;;;;;;;8.75;5.32;;;;;;;23.69;100.00;100634.97;10358643;28;20044;-69
2022/06/24 19:45:24;;;;;;;9.90;5.97;;;;;;;23.62;100.00;100651.75;10344260;28;20139;-70
2022/06/24 19:50:23;;;;;;;9.38;5.22;;;;;;;23.55;100.00;100654.59;10331886;28;20162;-69
2022/06/24 19:55:20;;;;;;;11.10;7.95;;;;;;;23.38;100.00;100652.72;10337108;28;20469;-69
2022/06/24 20:00:17;;;;;;;10.73;7.30;;;;;;;23.30;100.00;100654.75;10356779;28;20858;-69
2022/06/24 20:10:29;;;;;;;12.88;8.88;;;;;;;22.97;100.00;100667.22;10329076;28;20460;-69
2022/06/24 20:15:26;;;;;;;16.40;10.48;;;;;;;22.82;100.00;100674.84;10348528;28;20044;-70
2022/06/24 20:20:23;;;;;;;11.50;10.07;;;;;;;22.65;100.00;100684.84;10337977;28;20113;-70
2022/06/24 20:25:43;;;;;;;13.88;10.30;;;;;;;22.60;100.00;100688.81;10343960;28;20136;-71
2022/06/24 20:30:40;;;;;;;11.73;10.00;;;;;;;22.51;100.00;100701.59;10321835;28;20066;-70
2022/06/24 20:35:37;;;;;;;12.50;9.35;;;;;;;22.42;100.00;100702.78;10318292;28;20131;-70
2022/06/24 20:40:33;;;;;;;11.15;7.47;;;;;;;22.37;100.00;100706.00;10332473;28;20079;-70
2022/06/24 20:45:30;;;;;;;10.63;7.10;;;;;;;22.28;100.00;100697.25;10347338;28;20043;-69
2022/06/24 20:50:27;;;;;;;11.05;6.65;;;;;;;22.18;100.00;100692.44;10344657;28;20047;-70
2022/06/24 20:55:23;;;;;;;8.52;6.40;;;;;;;22.02;100.00;100690.84;10358033;28;20130;-70
2022/06/24 21:00:21;;;;;;;9.93;5.90;;;;;;;21.90;100.00;100688.44;10353771;28;20086;-70
2022/06/24 21:05:17;;;;;;;9.93;5.50;;;;;;;21.82;100.00;100695.19;10353141;28;20109;-70
2022/06/24 21:10:14;;;;;;;8.52;5.55;;;;;;;21.77;100.00;100703.91;10330853;28;20060;-70
2022/06/24 21:15:10;;;;;;;9.48;6.05;;;;;;;21.78;100.00;100697.16;10355977;28;20041;-70
2022/06/24 21:20:07;;;;;;;10.68;8.73;;;;;;;21.71;100.00;100711.06;10332927;28;20105;-68
2022/06/24 21:25:04;;;;;;;15.57;10.80;;;;;;;21.56;100.00;100721.34;10325603;28;20135;-68
2022/06/24 21:30:01;;;;;;;14.23;10.98;;;;;;;21.52;100.00;100743.59;10326969;28;20452;-69
2022/06/24 21:34:57;;;;;;;21.83;15.88;;;;;;;21.31;100.00;100737.94;10320189;28;20055;-66
2022/06/24 21:39:56;;;;;;;21.70;17.38;;;;;;;21.15;100.00;100741.03;10354669;28;20503;-66
2022/06/24 21:44:53;;;;;;;21.48;18.02;;;;;;;21.14;100.00;100745.81;10344941;28;20444;-70
2022/06/24 21:49:53;;;;;;;25.00;21.90;;;;;;;21.15;100.00;100752.94;10347994;28;20086;-69
2022/06/24 21:54:49;;;;;;;24.73;21.63;;;;;;;21.02;100.00;100760.03;10346647;28;20071;-69
2022/06/24 21:59:46;;;;;;;23.33;20.90;;;;;;;20.92;100.00;100771.88;10335159;28;20087;-70
2022/06/24 22:04:42;;;;;;;27.55;22.95;;;;;;;20.91;100.00;100773.88;10332804;28;20448;-70
2022/06/24 22:09:39;;;;;;;28.63;21.92;;;;;;;20.87;100.00;100786.16;10335940;28;20111;-69
2022/06/24 22:14:36;;;;;;;30.80;26.10;;;;;;;20.69;100.00;100786.81;10336391;28;20120;-70
2022/06/24 22:19:32;;;;;;;30.92;25.33;;;;;;;20.72;100.00;100780.47;10348336;28;20500;-70
2022/06/24 22:24:29;;;;;;;29.20;24.25;;;;;;;20.67;100.00;100791.94;10348479;28;20388;-70
2022/06/24 22:29:26;;;;;;;32.28;27.05;;;;;;;20.63;100.00;100793.88;10355953;28;20079;-66
2022/06/24 22:34:22;;;;;;;30.42;25.98;;;;;;;20.58;100.00;100802.59;10354667;28;20127;-66
2022/06/24 22:39:19;;;;;;;28.42;24.38;;;;;;;20.51;100.00;100813.59;10354105;28;20068;-65
2022/06/24 22:44:15;;;;;;;35.55;27.58;;;;;;;20.49;100.00;100810.41;10349937;28;20041;-66
2022/06/24 22:49:12;;;;;;;35.13;28.80;;;;;;;20.49;100.00;100815.97;10343033;28;20463;-65
2022/06/24 22:54:09;;;;;;;34.92;26.73;;;;;;;20.41;100.00;100825.44;10356535;28;20083;-66
2022/06/24 22:59:05;;;;;;;31.20;25.35;;;;;;;20.42;100.00;100827.00;10347733;28;20466;-69
2022/06/24 23:04:02;;;;;;;30.00;24.90;;;;;;;20.47;100.00;100829.44;10338355;28;20068;-66
2022/06/24 23:08:58;;;;;;;31.95;25.42;;;;;;;20.44;100.00;100824.66;10348605;28;20111;-66